Time;durP1;ratioP1;P1;durP2;ratioP2;P2;SDS_P1;SDS_P2;PMS_P1;PMS_P2;Temp;Humidity;BMP_temperature;BMP_pressure;BME280_temperature;BME280_humidity;BME280_pressure;Samples;Min_cycle;Max_cycle;Signal;HPM_P1;HPM_P2
2021/08/25 00:01:00;;;;;;;7.38;2.70;;;;;;;13.02;51.43;102707.78;5068519;28;20113;-69
2021/08/25 00:03:25;;;;;;;3.75;2.70;;;;;;;12.99;51.23;102707.84;5038187;28;20467;-69
2021/08/25 00:05:51;;;;;;;7.30;3.10;;;;;;;13.00;51.43;102698.22;5059579;28;20047;-69
2021/08/25 00:08:17;;;;;;;9.25;3.85;;;;;;;13.00;51.68;102700.84;5053311;28;20040;-69
2021/08/25 00:10:42;;;;;;;5.40;3.08;;;;;;;12.98;51.51;102695.66;5052372;28;20098;-69
2021/08/25 00:13:08;;;;;;;7.32;3.17;;;;;;;12.92;51.48;102692.28;5052697;28;20029;-70
2021/08/25 00:15:38;;;;;;;7.05;3.80;;;;;;;12.77;51.58;102689.06;5066312;28;20067;-69
2021/08/25 00:18:05;;;;;;;4.20;3.03;;;;;;;12.82;51.75;102691.59;5051430;28;20033;-69
2021/08/25 00:20:31;;;;;;;7.80;3.60;;;;;;;12.87;51.59;102687.09;5053071;28;20028;-69
2021/08/25 00:22:56;;;;;;;4.82;3.22;;;;;;;12.71;52.11;102686.56;5053141;28;20390;-68
2021/08/25 00:25:22;;;;;;;7.57;3.30;;;;;;;12.76;51.81;102691.72;5053404;28;20423;-69
2021/08/25 00:27:48;;;;;;;4.97;2.90;;;;;;;12.79;51.67;102678.56;5057149;28;20316;-69
2021/08/25 00:30:13;;;;;;;5.30;2.75;;;;;;;12.78;51.43;102682.06;5061837;28;20059;-69
2021/08/25 00:32:39;;;;;;;4.40;2.95;;;;;;;12.78;51.48;102682.06;5056755;28;20105;-69
2021/08/25 00:35:05;;;;;;;5.03;3.15;;;;;;;12.78;51.50;102680.31;5054000;28;20032;-69
2021/08/25 00:37:30;;;;;;;5.43;2.95;;;;;;;12.80;51.50;102680.25;5049074;28;20028;-69
2021/08/25 00:39:56;;;;;;;4.18;2.05;;;;;;;12.78;51.79;102676.81;5056583;28;20042;-70
2021/08/25 00:42:21;;;;;;;3.50;2.53;;;;;;;12.88;51.97;102673.09;5071823;28;20024;-69
2021/08/25 00:44:47;;;;;;;6.75;3.28;;;;;;;12.92;51.87;102674.78;5056548;28;20086;-70
2021/08/25 00:47:14;;;;;;;5.47;2.78;;;;;;;13.04;51.68;102679.75;5072751;28;20106;-70
2021/08/25 00:49:39;;;;;;;2.78;2.33;;;;;;;13.03;51.60;102678.03;5060213;28;20040;-68
2021/08/25 00:52:06;;;;;;;4.28;2.50;;;;;;;13.08;51.63;102670.91;5054740;28;20048;-68
2021/08/25 00:54:31;;;;;;;4.32;2.53;;;;;;;13.07;52.25;102669.19;5065039;28;20039;-68
2021/08/25 00:56:57;;;;;;;4.85;2.15;;;;;;;13.07;51.72;102663.94;5075521;28;20040;-69
2021/08/25 00:59:23;;;;;;;4.30;2.25;;;;;;;13.04;51.78;102666.63;5057298;28;20028;-69
2021/08/25 01:01:52;;;;;;;2.30;1.52;;;;;;;13.20;51.83;102664.50;5057026;28;20056;-68
2021/08/25 01:04:25;;;;;;;4.35;2.03;;;;;;;13.20;51.94;102671.53;5057625;28;20042;-69
2021/08/25 01:06:50;;;;;;;3.47;1.83;;;;;;;13.23;51.73;102668.84;5072555;28;20107;-68
2021/08/25 01:09:18;;;;;;;3.08;1.95;;;;;;;13.16;51.68;102667.25;5046203;28;20020;-69
2021/08/25 01:11:47;;;;;;;1.70;1.33;;;;;;;13.07;51.64;102665.69;5058628;28;20090;-69
2021/08/25 01:14:13;;;;;;;2.55;1.98;;;;;;;13.09;51.68;102656.91;5058887;28;20028;-70
2021/08/25 01:16:45;;;;;;;2.13;1.77;;;;;;;13.03;51.81;102657.03;5073220;28;20116;-69
2021/08/25 01:19:16;;;;;;;4.43;2.25;;;;;;;13.09;51.63;102654.28;5047149;28;20670;-68
2021/08/25 01:21:44;;;;;;;3.35;1.77;;;;;;;12.97;51.60;102654.53;5062486;28;20033;-69
2021/08/25 01:24:15;;;;;;;3.97;1.80;;;;;;;12.89;51.96;102657.34;5073073;28;20489;-68
2021/08/25 01:26:43;;;;;;;2.85;1.65;;;;;;;12.86;51.97;102648.66;5056253;28;20029;-69
2021/08/25 01:29:24;;;;;;;3.40;2.28;;;;;;;12.89;52.11;102635.44;5053069;28;20071;-69
2021/08/25 01:31:51;;;;;;;2.60;1.83;;;;;;;12.98;52.06;102632.66;5059228;28;20402;-69
2021/08/25 01:34:17;;;;;;;2.83;1.30;;;;;;;12.92;52.17;102627.53;5044055;28;20064;-69
2021/08/25 01:36:43;;;;;;;6.55;2.35;;;;;;;12.78;52.09;102622.59;5056008;28;20059;-69
2021/08/25 01:39:09;;;;;;;4.07;1.77;;;;;;;12.66;52.47;102628.06;5057206;28;20045;-69
2021/08/25 01:41:34;;;;;;;2.70;2.00;;;;;;;12.65;52.40;102624.56;5042470;28;20659;-69
2021/08/25 01:44:02;;;;;;;3.08;2.05;;;;;;;12.63;52.57;102618.50;5058354;28;20047;-69
2021/08/25 01:46:39;;;;;;;5.35;2.25;;;;;;;12.69;52.48;102626.28;5064033;28;20131;-69
2021/08/25 01:49:07;;;;;;;5.05;2.15;;;;;;;12.57;52.17;102616.00;5047673;28;20068;-69
2021/08/25 01:51:33;;;;;;;3.42;2.15;;;;;;;12.47;52.79;102614.47;5047361;28;20040;-69
2021/08/25 01:54:00;;;;;;;3.25;1.80;;;;;;;12.53;52.50;102605.59;5074927;28;20079;-69
2021/08/25 01:56:26;;;;;;;2.60;1.10;;;;;;;12.56;52.35;102605.50;5073131;28;20084;-69
2021/08/25 01:58:53;;;;;;;3.88;2.22;;;;;;;12.53;52.79;102608.22;5057765;28;20486;-69
2021/08/25 02:01:19;;;;;;;4.15;2.10;;;;;;;12.49;52.62;102600.44;5056204;28;20219;-69
2021/08/25 02:03:45;;;;;;;6.22;1.75;;;;;;;12.60;51.99;102591.44;5057617;28;20039;-69
2021/08/25 02:06:11;;;;;;;5.18;2.28;;;;;;;12.64;52.07;102593.97;5071027;28;20041;-69
2021/08/25 02:08:36;;;;;;;4.32;2.30;;;;;;;12.65;51.93;102590.47;5056904;28;20093;-69
2021/08/25 02:11:02;;;;;;;5.05;2.67;;;;;;;12.70;51.84;102593.03;5055952;28;20036;-69
2021/08/25 02:13:28;;;;;;;1.83;1.45;;;;;;;12.67;51.90;102596.56;5071090;28;20057;-69
2021/08/25 02:15:53;;;;;;;2.28;1.08;;;;;;;12.72;51.76;102593.00;5055582;28;20094;-69
2021/08/25 02:18:19;;;;;;;1.83;1.00;;;;;;;12.73;51.61;102586.84;5058384;28;20432;-69
2021/08/25 02:20:45;;;;;;;4.43;2.20;;;;;;;12.59;51.41;102587.97;5055684;28;20029;-69
2021/08/25 02:23:11;;;;;;;4.30;1.90;;;;;;;12.37;51.76;102584.06;5052689;28;20037;-69
2021/08/25 02:25:37;;;;;;;6.28;1.92;;;;;;;12.12;51.84;102578.47;5064810;28;20029;-69
2021/08/25 02:28:05;;;;;;;4.35;1.33;;;;;;;12.04;52.38;102576.84;5062904;28;20055;-69
2021/08/25 02:30:30;;;;;;;4.97;1.80;;;;;;;12.21;52.09;102578.28;5063066;28;20040;-69
2021/08/25 02:32:56;;;;;;;2.88;0.85;;;;;;;12.27;52.34;102571.16;5072077;28;20028;-69
2021/08/25 02:35:22;;;;;;;2.95;1.30;;;;;;;12.31;52.24;102571.06;5056665;28;20040;-69
2021/08/25 02:37:47;;;;;;;3.90;1.30;;;;;;;12.32;52.03;102568.44;5069579;28;20064;-69
2021/08/25 02:40:13;;;;;;;2.63;0.88;;;;;;;12.36;51.71;102564.00;5072418;28;20061;-69
2021/08/25 02:42:40;;;;;;;2.90;0.88;;;;;;;12.37;51.70;102563.94;5060623;28;20560;-69
2021/08/25 02:45:07;;;;;;;3.65;1.58;;;;;;;12.35;52.09;102559.63;5056008;28;20032;-69
2021/08/25 02:47:32;;;;;;;3.95;1.33;;;;;;;12.24;52.13;102554.59;5047825;28;20020;-69
2021/08/25 02:49:58;;;;;;;4.18;1.58;;;;;;;12.16;52.51;102546.91;5046282;28;21010;-69
2021/08/25 02:52:23;;;;;;;2.42;1.35;;;;;;;12.24;52.34;102550.22;5055846;28;20032;-69
2021/08/25 02:54:49;;;;;;;4.63;0.85;;;;;;;12.26;52.00;102551.06;5055051;28;20028;-69
2021/08/25 02:57:15;;;;;;;2.65;0.88;;;;;;;12.31;52.11;102552.72;5060564;28;20123;-69
2021/08/25 02:59:40;;;;;;;7.70;1.88;;;;;;;12.26;51.41;102537.94;5066327;28;20045;-69
2021/08/25 03:02:06;;;;;;;3.95;1.08;;;;;;;12.21;52.18;102537.19;5051564;28;20030;-69
2021/08/25 03:04:31;;;;;;;2.17;1.27;;;;;;;12.29;52.03;102530.03;5069469;28;20028;-68
2021/08/25 03:06:57;;;;;;;6.22;1.67;;;;;;;12.31;51.95;102522.13;5054079;28;20036;-69
2021/08/25 03:09:22;;;;;;;3.10;1.20;;;;;;;12.34;52.08;102518.59;5067735;28;20052;-69
2021/08/25 03:11:49;;;;;;;4.20;1.33;;;;;;;12.40;51.75;102518.44;5053742;28;20032;-69
2021/08/25 03:14:14;;;;;;;5.00;1.42;;;;;;;12.42;51.79;102509.66;5058416;28;20563;-69
2021/08/25 03:16:40;;;;;;;1.75;1.02;;;;;;;12.48;51.80;102506.03;5054867;28;20052;-69
2021/08/25 03:19:06;;;;;;;1.27;0.90;;;;;;;12.57;51.65;102505.81;5059648;28;20044;-69
2021/08/25 03:21:31;;;;;;;3.47;1.35;;;;;;;12.54;51.64;102500.66;5055320;28;20028;-69
2021/08/25 03:23:57;;;;;;;5.70;1.17;;;;;;;12.58;51.75;102496.19;5055457;28;20036;-69
2021/08/25 03:26:22;;;;;;;4.07;1.20;;;;;;;12.63;51.61;102504.84;5063801;28;20457;-68
2021/08/25 03:28:48;;;;;;;3.28;1.20;;;;;;;12.67;51.48;102502.09;5054774;28;20036;-68
2021/08/25 03:31:13;;;;;;;3.20;1.10;;;;;;;12.64;51.65;102496.91;5053195;28;20041;-72
2021/08/25 03:33:39;;;;;;;3.70;1.52;;;;;;;12.58;51.90;102494.44;5061957;28;20033;-69
2021/08/25 03:36:04;;;;;;;2.72;1.40;;;;;;;12.49;51.84;102498.16;5054111;28;20096;-69
2021/08/25 03:38:30;;;;;;;3.25;1.83;;;;;;;12.45;52.25;102499.09;5059085;28;20052;-69
2021/08/25 03:40:55;;;;;;;2.47;1.63;;;;;;;12.48;52.30;102495.53;5055881;28;20039;-68
2021/08/25 03:43:21;;;;;;;3.08;1.08;;;;;;;12.44;51.91;102494.72;5067187;28;20037;-70
2021/08/25 03:45:47;;;;;;;4.20;1.60;;;;;;;12.44;52.05;102494.72;5055496;28;20434;-70
2021/08/25 03:48:12;;;;;;;2.67;1.30;;;;;;;12.49;52.01;102492.00;5054171;28;20041;-70
2021/08/25 03:50:38;;;;;;;4.30;1.52;;;;;;;12.45;51.94;102485.13;5070512;28;20086;-70
2021/08/25 03:53:03;;;;;;;6.05;1.48;;;;;;;12.40;52.08;102484.34;5052588;28;20044;-71
2021/08/25 03:55:29;;;;;;;6.30;2.40;;;;;;;12.47;51.70;102488.59;5054952;28;20028;-70
2021/08/25 03:57:54;;;;;;;5.45;2.50;;;;;;;12.43;52.48;102493.03;5069768;28;20033;-69
2021/08/25 04:00:20;;;;;;;2.55;1.58;;;;;;;12.49;52.49;102486.75;5039474;28;20198;-70
2021/08/25 04:02:45;;;;;;;4.90;2.47;;;;;;;12.56;52.45;102493.63;5050816;28;20027;-69
2021/08/25 04:05:11;;;;;;;5.43;2.45;;;;;;;12.57;52.58;102484.84;5050969;28;20021;-71
2021/08/25 04:07:36;;;;;;;3.88;3.00;;;;;;;12.57;52.76;102490.09;5059161;28;20040;-69
2021/08/25 04:10:02;;;;;;;5.65;3.08;;;;;;;12.61;52.33;102490.91;5066042;28;20130;-71
2021/08/25 04:12:28;;;;;;;4.18;2.72;;;;;;;12.55;52.91;102475.28;5055752;28;20044;-70
2021/08/25 04:14:53;;;;;;;6.35;2.55;;;;;;;12.57;52.92;102482.22;5053972;28;20051;-69
2021/08/25 04:17:19;;;;;;;3.85;2.80;;;;;;;12.70;52.54;102473.19;5051782;28;20133;-69
2021/08/25 04:19:44;;;;;;;6.05;2.78;;;;;;;12.81;52.30;102482.59;5059396;28;20036;-69
2021/08/25 04:22:10;;;;;;;5.82;2.38;;;;;;;12.83;52.28;102478.16;5070882;28;20037;-70
2021/08/25 04:24:36;;;;;;;3.47;2.45;;;;;;;12.86;52.33;102470.22;5056641;28;20028;-68
2021/08/25 04:27:05;;;;;;;4.60;2.80;;;;;;;12.93;52.29;102477.03;5052953;28;20036;-72
2021/08/25 04:29:31;;;;;;;4.90;3.10;;;;;;;13.01;52.11;102469.84;5053267;28;20624;-70
2021/08/25 04:31:56;;;;;;;3.97;2.22;;;;;;;13.07;51.96;102461.81;5055943;28;20497;-70
2021/08/25 04:34:22;;;;;;;4.60;2.72;;;;;;;13.03;51.83;102462.78;5051460;28;20040;-70
2021/08/25 04:36:47;;;;;;;4.35;3.00;;;;;;;12.99;51.84;102458.50;5053385;28;20041;-70
2021/08/25 04:39:13;;;;;;;5.13;2.55;;;;;;;12.98;51.89;102453.28;5050488;28;20033;-69
2021/08/25 04:41:38;;;;;;;4.15;3.28;;;;;;;13.07;51.97;102455.69;5069250;28;20057;-69
2021/08/25 04:44:05;;;;;;;3.90;2.90;;;;;;;13.12;51.74;102443.31;5052520;28;20020;-69
2021/08/25 04:46:31;;;;;;;5.80;3.33;;;;;;;13.16;51.86;102451.97;5053620;28;20029;-69
2021/08/25 04:48:56;;;;;;;5.07;2.80;;;;;;;13.21;51.73;102450.09;5051985;28;20171;-69
2021/08/25 04:51:22;;;;;;;3.65;2.50;;;;;;;13.24;51.55;102450.00;5039691;28;20173;-70
2021/08/25 04:53:48;;;;;;;5.28;3.50;;;;;;;13.19;51.33;102447.50;5053242;28;20043;-69
2021/08/25 04:56:13;;;;;;;3.40;2.20;;;;;;;13.11;51.61;102447.69;5055284;28;20029;-69
2021/08/25 04:58:39;;;;;;;4.30;3.17;;;;;;;13.04;51.44;102448.75;5069620;28;20143;-69
2021/08/25 05:01:05;;;;;;;9.20;3.60;;;;;;;12.96;51.74;102445.47;5056196;28;20097;-69
2021/08/25 05:03:30;;;;;;;3.50;2.28;;;;;;;13.04;51.87;102440.03;5052770;28;20115;-68
2021/08/25 05:05:56;;;;;;;3.42;2.70;;;;;;;13.25;51.67;102431.59;5065962;28;20082;-69
2021/08/25 05:08:22;;;;;;;5.35;3.35;;;;;;;13.32;51.37;102432.31;5068469;28;20060;-68
2021/08/25 05:10:48;;;;;;;6.53;2.80;;;;;;;13.35;50.67;102440.09;5054295;28;20039;-69
2021/08/25 05:13:14;;;;;;;6.57;3.70;;;;;;;13.46;51.53;102435.41;5063814;28;20029;-68
2021/08/25 05:15:44;;;;;;;6.47;2.92;;;;;;;13.59;51.31;102430.72;5059151;28;20072;-69
2021/08/25 05:18:10;;;;;;;9.68;2.42;;;;;;;13.70;51.22;102435.66;5057964;28;20064;-69
2021/08/25 05:20:36;;;;;;;4.70;2.95;;;;;;;13.83;50.86;102434.41;5054420;28;20075;-68
2021/08/25 05:23:01;;;;;;;3.95;2.60;;;;;;;14.50;50.49;102433.28;5053248;28;20071;-69
2021/08/25 05:25:27;;;;;;;3.97;2.55;;;;;;;15.79;47.39;102426.19;5065762;28;20108;-69
2021/08/25 05:27:52;;;;;;;4.05;2.53;;;;;;;16.34;45.75;102424.09;5037323;28;20075;-68
2021/08/25 05:30:18;;;;;;;6.97;2.35;;;;;;;17.70;43.10;102423.66;5045657;28;20094;-69
2021/08/25 05:32:43;;;;;;;3.03;2.22;;;;;;;18.74;39.79;102413.34;5063485;28;20037;-68
2021/08/25 05:35:09;;;;;;;2.67;1.95;;;;;;;19.68;38.70;102420.00;5056929;28;20044;-69
2021/08/25 05:37:35;;;;;;;2.72;1.73;;;;;;;21.37;35.74;102412.00;5057509;28;20100;-69
2021/08/25 05:40:00;;;;;;;4.22;1.90;;;;;;;22.64;32.74;102420.78;5052255;28;20029;-69
2021/08/25 05:42:26;;;;;;;2.63;1.45;;;;;;;22.62;31.65;102414.69;5054968;28;20044;-69
2021/08/25 05:44:51;;;;;;;4.28;1.48;;;;;;;23.78;29.90;102411.06;5058599;28;20047;-69
2021/08/25 05:47:17;;;;;;;5.53;1.00;;;;;;;24.53;29.82;102407.38;5055709;28;20029;-69
2021/08/25 05:49:42;;;;;;;2.70;1.20;;;;;;;25.33;27.91;102403.84;5058782;28;20036;-69
2021/08/25 05:52:08;;;;;;;1.52;0.90;;;;;;;26.00;27.82;102402.91;5057278;28;20037;-69
2021/08/25 05:54:33;;;;;;;3.22;0.90;;;;;;;25.82;27.10;102400.81;5060491;28;20064;-69
2021/08/25 05:56:59;;;;;;;2.35;1.08;;;;;;;26.20;27.08;102402.16;5056723;28;20037;-69
2021/08/25 05:59:24;;;;;;;4.25;1.05;;;;;;;26.99;25.39;102407.09;5057360;28;20533;-69
2021/08/25 06:01:50;;;;;;;1.90;0.90;;;;;;;27.33;26.47;102409.53;5054705;28;20387;-70
2021/08/25 06:04:15;;;;;;;3.22;0.80;;;;;;;27.27;25.23;102404.72;5056074;28;20032;-69
2021/08/25 06:06:41;;;;;;;1.73;1.05;;;;;;;26.84;26.10;102405.75;5056293;28;20111;-70
2021/08/25 06:09:06;;;;;;;4.60;1.15;;;;;;;26.46;25.65;102409.84;5058333;28;20041;-69
2021/08/25 06:11:32;;;;;;;1.00;0.50;;;;;;;26.00;27.58;102405.59;5057975;28;20107;-69
2021/08/25 06:13:58;;;;;;;3.75;0.70;;;;;;;27.09;24.78;102391.91;5042667;28;20039;-69
2021/08/25 06:16:23;;;;;;;2.75;0.70;;;;;;;27.42;24.67;102387.25;5074133;28;20029;-69
2021/08/25 06:18:49;;;;;;;2.78;0.80;;;;;;;28.19;24.14;102385.72;5063565;28;20037;-68
2021/08/25 06:21:15;;;;;;;4.75;0.90;;;;;;;28.17;23.19;102385.00;5057582;28;20087;-69
2021/08/25 06:23:41;;;;;;;2.22;0.47;;;;;;;28.50;23.88;102378.34;5071167;28;20139;-70
2021/08/25 06:26:07;;;;;;;2.38;0.40;;;;;;;27.90;24.78;102370.41;5070881;28;20108;-68
2021/08/25 06:28:32;;;;;;;4.50;0.95;;;;;;;28.54;23.49;102368.13;5055580;28;20245;-69
2021/08/25 06:30:58;;;;;;;1.88;0.50;;;;;;;28.11;24.02;102362.19;5072788;28;20025;-70
2021/08/25 06:33:23;;;;;;;1.85;0.40;;;;;;;28.04;24.32;102354.84;5058064;28;20036;-69
2021/08/25 06:35:49;;;;;;;3.40;0.55;;;;;;;27.60;24.92;102351.69;5055678;28;20108;-69
2021/08/25 06:38:14;;;;;;;1.60;0.57;;;;;;;27.99;24.59;102349.03;5053583;28;20028;-70
2021/08/25 06:40:40;;;;;;;5.47;0.60;;;;;;;28.79;24.25;102347.84;5054628;28;20024;-70
2021/08/25 06:43:05;;;;;;;1.42;0.40;;;;;;;28.96;23.13;102338.13;5055867;28;20036;-69
2021/08/25 06:45:31;;;;;;;3.85;0.35;;;;;;;29.95;21.89;102348.19;5055904;28;20025;-69
2021/08/25 06:47:56;;;;;;;4.57;0.47;;;;;;;30.56;21.91;102357.31;5060150;28;20366;-70
2021/08/25 06:50:22;;;;;;;5.53;0.68;;;;;;;30.66;21.48;102352.63;5056517;28;20525;-70
2021/08/25 06:52:47;;;;;;;3.63;0.38;;;;;;;30.31;21.28;102343.63;5073709;28;20032;-68
2021/08/25 06:55:13;;;;;;;0.77;0.30;;;;;;;30.78;20.69;102345.97;5054293;28;20036;-71
2021/08/25 06:57:38;;;;;;;3.08;0.30;;;;;;;30.63;21.29;102339.47;5056316;28;20520;-71
2021/08/25 07:00:05;;;;;;;1.55;0.32;;;;;;;30.13;22.85;102334.72;5053954;28;20032;-70
2021/08/25 07:02:30;;;;;;;0.88;0.40;;;;;;;30.73;20.13;102325.84;5050618;28;20056;-71
2021/08/25 07:04:56;;;;;;;1.45;0.35;;;;;;;31.25;20.95;102327.59;5054051;28;20072;-71
2021/08/25 07:07:21;;;;;;;1.60;0.40;;;;;;;32.10;19.20;102319.31;5055677;28;20028;-70
2021/08/25 07:09:47;;;;;;;0.70;0.20;;;;;;;32.13;18.98;102318.97;5054389;28;20033;-69
2021/08/25 07:12:12;;;;;;;2.88;0.95;;;;;;;31.65;20.00;102320.63;5069032;28;20103;-70
2021/08/25 07:14:38;;;;;;;2.45;0.28;;;;;;;31.13;20.16;102327.91;5053285;28;20035;-69
2021/08/25 07:17:03;;;;;;;1.05;0.20;;;;;;;30.87;20.63;102338.75;5056121;28;20036;-70
2021/08/25 07:19:29;;;;;;;2.05;0.13;;;;;;;28.32;23.04;102324.44;5055083;28;20020;-71
2021/08/25 07:21:55;;;;;;;2.50;0.10;;;;;;;27.85;24.24;102327.00;5038539;28;20028;-70
2021/08/25 07:24:20;;;;;;;2.15;0.25;;;;;;;28.44;24.01;102302.78;5055026;28;20074;-70
2021/08/25 07:26:46;;;;;;;1.05;0.20;;;;;;;29.98;21.54;102311.00;5050859;28;20104;-70
2021/08/25 07:29:11;;;;;;;4.03;0.20;;;;;;;28.69;23.24;102304.00;5056045;28;20029;-70
2021/08/25 07:31:37;;;;;;;2.15;0.50;;;;;;;25.18;27.46;102306.97;5040918;28;20024;-70
2021/08/25 07:34:04;;;;;;;1.42;0.30;;;;;;;23.54;30.88;102299.81;5044283;28;20048;-69
2021/08/25 07:36:29;;;;;;;3.90;0.20;;;;;;;22.10;32.80;102305.38;5054315;28;20032;-70
2021/08/25 07:38:55;;;;;;;1.83;0.20;;;;;;;21.07;34.30;102301.31;5061234;28;20020;-69
2021/08/25 07:41:20;;;;;;;1.42;0.10;;;;;;;19.97;36.64;102308.72;5051470;28;20453;-69
2021/08/25 07:43:46;;;;;;;1.08;0.10;;;;;;;19.43;38.41;102308.19;5057594;28;20060;-70
2021/08/25 07:46:11;;;;;;;0.77;0.10;;;;;;;19.12;39.65;102307.22;5051634;28;20033;-70
2021/08/25 07:48:37;;;;;;;2.83;0.40;;;;;;;22.62;33.04;102294.78;5053404;28;20094;-70
2021/08/25 07:51:08;;;;;;;2.70;0.17;;;;;;;25.09;28.89;102294.31;5037676;28;20137;-69
2021/08/25 07:53:37;;;;;;;2.00;0.10;;;;;;;23.20;31.46;102280.03;5054490;28;20533;-69
2021/08/25 07:56:04;;;;;;;3.92;0.28;;;;;;;22.07;34.07;102278.94;5050495;28;20040;-71
2021/08/25 07:58:29;;;;;;;1.17;0.50;;;;;;;21.24;35.81;102283.44;5065323;28;20025;-73
2021/08/25 08:00:55;;;;;;;0.70;0.20;;;;;;;19.75;38.57;102282.56;5071207;28;20040;-70
2021/08/25 08:03:23;;;;;;;2.65;0.22;;;;;;;18.74;40.25;102288.03;5054468;28;20118;-70
2021/08/25 08:05:49;;;;;;;2.75;0.43;;;;;;;18.47;41.07;102288.53;5053902;28;20028;-70
2021/08/25 08:08:16;;;;;;;1.35;0.13;;;;;;;18.05;41.74;102301.19;5053108;28;20081;-70
2021/08/25 08:10:42;;;;;;;1.10;0.30;;;;;;;18.08;42.21;102292.22;5053790;28;20032;-69
2021/08/25 08:13:08;;;;;;;0.43;0.10;;;;;;;17.67;43.86;102294.22;5054440;28;20028;-69
2021/08/25 08:15:36;;;;;;;1.75;0.13;;;;;;;17.61;44.19;102293.59;5058651;28;20028;-69
2021/08/25 08:18:09;;;;;;;1.08;0.10;;;;;;;17.82;43.83;102297.00;5070089;28;20156;-69
2021/08/25 08:20:35;;;;;;;0.35;0.10;;;;;;;17.99;42.50;102292.69;5054725;28;20032;-69
2021/08/25 08:23:00;;;;;;;0.52;0.10;;;;;;;18.03;41.98;102288.97;5067614;28;20086;-69
2021/08/25 08:25:26;;;;;;;1.85;0.10;;;;;;;18.36;42.04;102289.06;5055980;28;20037;-70
2021/08/25 08:27:51;;;;;;;0.40;0.10;;;;;;;18.34;41.48;102287.44;5049578;28;20043;-72
2021/08/25 08:30:17;;;;;;;1.52;0.00;;;;;;;18.31;41.58;102288.47;5044714;28;20070;-69
2021/08/25 08:32:42;;;;;;;0.20;0.00;;;;;;;21.18;35.72;102283.81;5053275;28;20612;-69
2021/08/25 08:35:09;;;;;;;2.25;0.20;;;;;;;24.00;31.13;102280.38;5064528;28;20021;-69
2021/08/25 08:37:34;;;;;;;0.20;0.00;;;;;;;22.69;31.08;102285.44;5051933;28;20657;-70
2021/08/25 08:40:00;;;;;;;0.20;0.05;;;;;;;20.99;33.61;102279.66;5051602;28;20102;-69
2021/08/25 08:42:28;;;;;;;2.28;0.05;;;;;;;19.85;36.58;102281.09;5042602;28;20063;-70
2021/08/25 08:44:56;;;;;;;1.95;0.28;;;;;;;20.01;36.21;102275.75;5053576;28;20033;-69
2021/08/25 08:47:25;;;;;;;2.35;0.20;;;;;;;21.45;34.21;102273.25;5051919;28;20029;-68
2021/08/25 08:49:57;;;;;;;0.30;0.25;;;;;;;20.86;35.08;102268.94;5067860;28;20025;-69
2021/08/25 08:52:23;;;;;;;1.05;0.00;;;;;;;20.23;36.81;102266.56;5053433;28;20490;-68
2021/08/25 08:54:50;;;;;;;1.08;0.00;;;;;;;19.54;38.15;102266.03;5068575;28;20052;-68
2021/08/25 08:57:23;;;;;;;0.15;0.00;;;;;;;19.25;39.55;102276.47;5051697;28;20137;-68
2021/08/25 08:59:50;;;;;;;0.30;0.20;;;;;;;19.79;36.85;102265.53;5055048;28;20032;-68
2021/08/25 09:02:36;;;;;;;0.75;0.10;;;;;;;20.07;35.65;102254.16;5069573;28;20425;-70
2021/08/25 09:05:14;;;;;;;2.85;0.08;;;;;;;21.49;34.93;102256.13;5059469;28;20080;-68
2021/08/25 09:07:52;;;;;;;0.82;0.00;;;;;;;20.99;32.90;102252.25;5073717;28;20262;-69
2021/08/25 09:10:21;;;;;;;0.00;0.00;;;;;;;20.13;34.72;102256.47;5056876;28;20041;-67
2021/08/25 09:12:53;;;;;;;0.13;0.00;;;;;;;20.08;34.89;102255.88;5062944;28;20041;-68
2021/08/25 09:15:24;;;;;;;0.43;0.00;;;;;;;20.77;33.67;102248.22;5046671;28;20028;-68
2021/08/25 09:18:00;;;;;;;0.50;0.08;;;;;;;21.11;33.47;102240.81;5056981;28;20037;-68
2021/08/25 09:20:27;;;;;;;2.83;0.10;;;;;;;21.02;33.97;102239.63;5056995;28;20040;-69
2021/08/25 09:23:15;;;;;;;0.57;0.00;;;;;;;20.61;33.52;102235.03;5063865;28;20554;-69
2021/08/25 09:25:42;;;;;;;0.35;0.00;;;;;;;19.48;35.78;102237.22;5054759;28;20069;-70
2021/08/25 09:28:08;;;;;;;0.15;0.00;;;;;;;18.85;37.92;102233.56;5073213;28;20048;-68
2021/08/25 09:30:54;;;;;;;1.58;0.10;;;;;;;18.40;40.02;102250.94;5048091;28;20083;-69
2021/08/25 09:33:22;;;;;;;3.22;0.10;;;;;;;18.35;40.13;102237.09;5053545;28;20037;-68
2021/08/25 09:35:48;;;;;;;1.48;0.30;;;;;;;18.46;40.76;102245.31;5055321;28;20611;-68
2021/08/25 09:38:21;;;;;;;0.57;0.10;;;;;;;18.15;41.00;102247.81;5071150;28;20041;-68
2021/08/25 09:40:58;;;;;;;0.95;0.10;;;;;;;18.57;40.15;102251.88;5053982;28;20774;-68
2021/08/25 09:43:29;;;;;;;8.77;0.60;;;;;;;19.44;37.80;102247.16;5056328;28;20060;-69
2021/08/25 09:46:25;;;;;;;2.28;0.10;;;;;;;19.17;38.04;102249.53;5054256;28;20342;-70
2021/08/25 09:48:56;;;;;;;1.55;0.10;;;;;;;19.39;37.47;102240.38;5058982;28;20072;-69
2021/08/25 09:51:35;;;;;;;0.82;0.22;;;;;;;19.74;36.51;102224.28;5040003;28;20433;-69
2021/08/25 09:54:11;;;;;;;4.18;0.20;;;;;;;19.53;36.92;102213.94;5053090;28;20029;-67
2021/08/25 09:56:38;;;;;;;0.28;0.08;;;;;;;19.18;37.43;102208.84;5058393;28;20124;-68
2021/08/25 09:59:06;;;;;;;3.13;0.17;;;;;;;19.13;37.80;102210.88;5061743;28;20024;-68
2021/08/25 10:01:32;;;;;;;0.38;0.10;;;;;;;18.43;38.55;102208.44;5062169;28;20024;-69
2021/08/25 10:03:58;;;;;;;5.78;0.43;;;;;;;19.29;38.39;102210.88;5053210;28;20060;-70
2021/08/25 10:06:25;;;;;;;2.33;0.45;;;;;;;19.07;37.52;102198.81;5056068;28;20542;-69
2021/08/25 10:08:52;;;;;;;1.75;0.10;;;;;;;19.15;35.77;102201.06;5055268;28;20124;-70
2021/08/25 10:11:22;;;;;;;1.13;0.20;;;;;;;20.63;34.31;102184.47;5047938;28;20060;-70
2021/08/25 10:13:48;;;;;;;2.72;0.10;;;;;;;20.33;34.22;102180.13;5071050;28;20039;-70
2021/08/25 10:16:38;;;;;;;0.90;0.20;;;;;;;19.69;34.95;102177.66;5053263;28;20025;-70
2021/08/25 10:19:42;;;;;;;1.50;0.10;;;;;;;19.87;35.02;102174.88;5057069;28;20044;-70
2021/08/25 10:22:14;;;;;;;2.20;0.22;;;;;;;21.04;32.76;102165.09;5051843;28;20168;-70
2021/08/25 10:24:48;;;;;;;;;;;;;;;20.51;33.77;102170.16;5055678;28;20556;-71
2021/08/25 10:27:14;;;;;;;7.22;0.20;;;;;;;19.89;35.57;102165.88;5055446;28;19920;-70
2021/08/25 10:30:10;;;;;;;0.55;0.10;;;;;;;20.92;33.82;102164.91;5055150;28;20435;-70
2021/08/25 10:32:37;;;;;;;0.15;0.10;;;;;;;21.02;32.68;102153.69;5022398;28;20068;-70
2021/08/25 10:35:32;;;;;;;0.93;0.50;;;;;;;21.88;31.37;102135.56;5054874;28;20501;-70
2021/08/25 10:38:28;;;;;;;1.35;0.10;;;;;;;22.41;31.87;102127.50;5055629;28;20060;-69
2021/08/25 10:41:01;;;;;;;0.93;0.10;;;;;;;22.01;30.84;102114.28;5051602;28;20048;-69
2021/08/25 10:43:40;;;;;;;1.17;0.35;;;;;;;22.55;30.12;102113.19;5053652;28;20034;-69
2021/08/25 10:46:07;;;;;;;2.40;0.10;;;;;;;21.38;32.06;102117.66;5052781;28;20032;-69
2021/08/25 10:48:42;;;;;;;0.30;0.10;;;;;;;21.10;33.05;102112.38;5055231;28;20048;-69
2021/08/25 10:51:29;;;;;;;0.40;0.10;;;;;;;19.91;34.87;102102.13;5053810;28;20040;-69
2021/08/25 10:53:55;;;;;;;0.20;0.00;;;;;;;20.22;35.20;102098.47;5050217;28;20036;-69
2021/08/25 10:56:23;;;;;;;0.28;0.10;;;;;;;20.00;35.84;102092.75;5054962;28;20039;-69
2021/08/25 10:59:04;;;;;;;1.02;0.10;;;;;;;20.67;35.21;102099.19;5070782;28;20409;-68
2021/08/25 11:01:46;;;;;;;2.17;0.10;;;;;;;20.49;35.61;102101.22;5059414;28;20123;-69
2021/08/25 11:04:21;;;;;;;0.20;0.00;;;;;;;20.15;35.79;102096.25;5053628;28;20044;-68
2021/08/25 11:06:58;;;;;;;0.13;0.00;;;;;;;19.32;37.14;102090.56;5059942;28;20029;-69
2021/08/25 11:09:34;;;;;;;0.90;0.08;;;;;;;19.39;37.95;102106.06;5059953;28;20107;-70
2021/08/25 11:12:08;;;;;;;0.63;0.10;;;;;;;18.82;39.00;102114.53;5069224;28;20966;-68
2021/08/25 11:14:37;;;;;;;1.75;0.10;;;;;;;18.71;39.58;102103.69;5069884;28;20044;-69
2021/08/25 11:17:21;;;;;;;0.50;0.10;;;;;;;18.74;39.67;102100.84;5057598;28;20036;-71
2021/08/25 11:19:54;;;;;;;1.13;0.10;;;;;;;18.48;40.41;102095.22;5055827;28;20032;-69
2021/08/25 11:22:24;;;;;;;1.67;0.10;;;;;;;18.68;39.71;102090.63;5057287;28;20028;-70
2021/08/25 11:24:55;;;;;;;0.38;0.17;;;;;;;18.81;40.18;102086.34;5067527;28;20127;-68
2021/08/25 11:27:28;;;;;;;2.13;0.10;;;;;;;18.67;40.35;102079.16;5041431;28;20482;-69